Time;durP1;ratioP1;P1;durP2;ratioP2;P2;SDS_P1;SDS_P2;PMS_P1;PMS_P2;Temp;Humidity;BMP_temperature;BMP_pressure;BME280_temperature;BME280_humidity;BME280_pressure;Samples;Min_cycle;Max_cycle;Signal;HPM_P1;HPM_P2
2022/05/10 00:00:13;;;;;;;14.45;12.95;;;;;;;;;;4994924;28;20042;-64
2022/05/10 00:02:41;;;;;;;14.23;12.93;;;;;;;;;;4995812;28;20054;-64
2022/05/10 00:05:09;;;;;;;14.40;12.90;;;;;;;;;;4993817;28;20502;-64
2022/05/10 00:07:38;;;;;;;17.67;13.40;;;;;;;;;;4994369;28;20474;-64
2022/05/10 00:10:10;;;;;;;20.63;13.55;;;;;;;;;;4994811;28;20046;-64
2022/05/10 00:12:38;;;;;;;14.25;12.60;;;;;;;;;;4995374;28;20060;-64
2022/05/10 00:15:09;;;;;;;21.00;14.55;;;;;;;;;;4994663;28;20042;-64
2022/05/10 00:17:39;;;;;;;14.93;13.35;;;;;;;;;;4995160;28;20449;-64
2022/05/10 00:20:11;;;;;;;17.10;14.07;;;;;;;;;;4995277;28;20058;-64
2022/05/10 00:22:40;;;;;;;15.55;13.95;;;;;;;;;;4994783;28;20178;-64
2022/05/10 00:25:11;;;;;;;14.45;12.55;;;;;;;;;;4994996;28;20065;-64
2022/05/10 00:27:39;;;;;;;21.45;13.95;;;;;;;;;;4994640;28;20045;-64
2022/05/10 00:30:08;;;;;;;14.43;13.13;;;;;;;;;;4995117;28;20100;-64
2022/05/10 00:32:37;;;;;;;15.73;14.13;;;;;;;;;;4994381;28;20050;-64
2022/05/10 00:35:15;;;;;;;20.83;15.35;;;;;;;;;;4994185;28;20102;-64
2022/05/10 00:37:45;;;;;;;18.02;16.00;;;;;;;;;;4993055;28;20486;-63
2022/05/10 00:40:16;;;;;;;15.48;14.07;;;;;;;;;;4994645;28;20038;-63
2022/05/10 00:42:44;;;;;;;15.65;14.07;;;;;;;;;;4994757;28;20114;-63
2022/05/10 00:45:15;;;;;;;16.00;14.43;;;;;;;;;;4994611;28;20173;-63
2022/05/10 00:48:09;;;;;;;16.77;15.05;;;;;;;;;;4992704;28;20490;-62
2022/05/10 00:50:48;;;;;;;15.52;13.85;;;;;;;;;;4992564;28;20054;-63
2022/05/10 00:53:27;;;;;;;22.67;15.60;;;;;;;;;;4994758;28;20050;-62
2022/05/10 00:56:14;;;;;;;17.88;13.38;;;;;;;;;;4993338;28;20076;-62
2022/05/10 00:58:44;;;;;;;15.43;11.88;;;;;;;;;;4994785;28;20075;-65
2022/05/10 01:01:16;;;;;;;14.27;12.52;;;;;;;;;;5009401;28;20038;-62
2022/05/10 01:04:09;;;;;;;16.27;14.77;;;;;;;;;;4993290;28;20054;-63
2022/05/10 01:06:51;;;;;;;14.57;13.27;;;;;;;;;;4992862;28;20054;-63
2022/05/10 01:09:32;;;;;;;16.25;13.38;;;;;;;;;;4993504;28;20069;-62
2022/05/10 01:12:05;;;;;;;14.05;12.68;;;;;;;;;;4993200;28;20062;-63
2022/05/10 01:14:47;;;;;;;14.70;12.43;;;;;;;;;;4994383;28;20096;-63
2022/05/10 01:17:18;;;;;;;16.50;14.80;;;;;;;;;;4992995;28;20078;-62
2022/05/10 01:19:46;;;;;;;15.90;13.65;;;;;;;;;;4993973;28;20062;-62
2022/05/10 01:22:35;;;;;;;17.27;13.43;;;;;;;;;;4992734;28;20085;-63
2022/05/10 01:25:27;;;;;;;15.18;13.65;;;;;;;;;;4994297;28;20050;-64
2022/05/10 01:28:10;;;;;;;16.08;13.32;;;;;;;;;;4992829;28;20078;-63
2022/05/10 01:30:38;;;;;;;14.93;13.52;;;;;;;;;;4994228;28;20053;-63
2022/05/10 01:33:29;;;;;;;16.02;14.30;;;;;;;;;;4994284;28;20113;-64
2022/05/10 01:36:12;;;;;;;16.05;14.43;;;;;;;;;;4994126;28;20474;-62
2022/05/10 01:38:56;;;;;;;15.23;13.57;;;;;;;;;;4994174;28;20050;-62
2022/05/10 01:41:54;;;;;;;18.20;12.88;;;;;;;;;;4994045;28;20054;-62
2022/05/10 01:44:38;;;;;;;14.82;13.27;;;;;;;;;;4994299;28;20051;-62
2022/05/10 01:47:28;;;;;;;17.67;15.18;;;;;;;;;;4993999;28;20070;-63
2022/05/10 01:50:22;;;;;;;16.83;15.10;;;;;;;;;;4994133;28;20077;-62
2022/05/10 01:52:56;;;;;;;20.00;16.63;;;;;;;;;;4993058;28;20249;-62
2022/05/10 01:55:32;;;;;;;15.55;13.93;;;;;;;;;;4993991;28;20050;-63
2022/05/10 01:58:19;;;;;;;26.98;14.07;;;;;;;;;;4993577;28;20130;-62
2022/05/10 02:00:55;;;;;;;35.25;15.30;;;;;;;;;;4998075;28;20118;-62
2022/05/10 02:03:34;;;;;;;20.83;15.05;;;;;;;;;;4997559;28;20101;-62
2022/05/10 02:06:08;;;;;;;15.15;13.35;;;;;;;;;;4997449;28;20050;-62
2022/05/10 02:09:23;;;;;;;16.00;13.98;;;;;;;;;;5012676;28;20410;-62
2022/05/10 02:12:31;;;;;;;17.65;15.18;;;;;;;;;;4997026;28;20055;-62
2022/05/10 02:15:02;;;;;;;18.35;16.45;;;;;;;;;;4995896;28;20419;-62
2022/05/10 02:18:01;;;;;;;18.83;16.70;;;;;;;;;;4996187;28;20490;-63
2022/05/10 02:21:05;;;;;;;17.88;15.90;;;;;;;;;;4997418;28;20089;-63
2022/05/10 02:23:56;;;;;;;16.88;14.52;;;;;;;;;;4997296;28;20046;-63
2022/05/10 02:26:39;;;;;;;17.75;15.38;;;;;;;;;;4997385;28;20421;-63
2022/05/10 02:29:16;;;;;;;20.63;14.85;;;;;;;;;;4997083;28;20047;-63
2022/05/10 02:35:48;;;;;;;15.80;14.27;;;;;;;;;;4996321;28;20050;-63
2022/05/10 02:38:41;;;;;;;18.77;16.80;;;;;;;;;;4997443;28;20042;-63
2022/05/10 02:41:21;;;;;;;17.02;13.95;;;;;;;;;;4996320;28;20125;-63
2022/05/10 02:43:58;;;;;;;22.40;15.25;;;;;;;;;;4997116;28;20050;-63
2022/05/10 02:46:27;;;;;;;16.33;14.60;;;;;;;;;;4995221;28;20077;-63
2022/05/10 02:48:56;;;;;;;19.40;15.38;;;;;;;;;;5012117;28;20429;-62
2022/05/10 02:51:25;;;;;;;17.05;15.25;;;;;;;;;;4996969;28;20050;-64
2022/05/10 02:53:53;;;;;;;20.60;16.25;;;;;;;;;;4996501;28;20054;-62
2022/05/10 02:56:24;;;;;;;21.60;14.93;;;;;;;;;;4996439;28;20532;-62
2022/05/10 02:59:22;;;;;;;19.90;14.70;;;;;;;;;;4995148;28;20046;-62
2022/05/10 03:02:08;;;;;;;22.42;15.75;;;;;;;;;;4994080;28;20497;-62
2022/05/10 03:04:39;;;;;;;18.08;16.15;;;;;;;;;;4993762;28;20050;-64
2022/05/10 03:07:09;;;;;;;19.88;15.13;;;;;;;;;;4996638;28;20088;-62
2022/05/10 03:09:37;;;;;;;21.92;15.25;;;;;;;;;;4995410;28;20042;-62
2022/05/10 03:12:07;;;;;;;16.52;14.80;;;;;;;;;;4996644;28;20046;-62
2022/05/10 03:14:36;;;;;;;17.42;14.95;;;;;;;;;;4995813;28;20581;-62
2022/05/10 03:17:04;;;;;;;15.45;13.88;;;;;;;;;;4996291;28;20038;-62
2022/05/10 03:19:32;;;;;;;24.35;16.85;;;;;;;;;;4995908;28;20046;-61
2022/05/10 03:22:01;;;;;;;22.92;15.48;;;;;;;;;;4996563;28;20093;-62
2022/05/10 03:24:30;;;;;;;21.38;14.70;;;;;;;;;;4996167;28;20081;-62
2022/05/10 03:26:59;;;;;;;16.42;14.48;;;;;;;;;;4996141;28;20046;-64
2022/05/10 03:29:29;;;;;;;17.77;15.93;;;;;;;;;;4994820;28;20042;-62
2022/05/10 03:31:58;;;;;;;16.10;14.52;;;;;;;;;;4995668;28;20514;-62
2022/05/10 03:37:12;;;;;;;16.70;15.00;;;;;;;;;;4995540;28;20054;-63
2022/05/10 03:39:40;;;;;;;19.25;15.90;;;;;;;;;;4995611;28;20606;-63
2022/05/10 03:42:10;;;;;;;17.52;15.82;;;;;;;;;;4995221;28;20047;-63
2022/05/10 03:44:38;;;;;;;20.08;16.45;;;;;;;;;;4996034;28;20050;-63
2022/05/10 03:47:08;;;;;;;17.52;14.57;;;;;;;;;;4995871;28;20406;-63
2022/05/10 03:49:37;;;;;;;19.13;15.38;;;;;;;;;;5010539;28;20490;-62
2022/05/10 03:52:06;;;;;;;21.05;16.02;;;;;;;;;;4996053;28;20138;-63
2022/05/10 03:54:36;;;;;;;19.38;16.02;;;;;;;;;;4995270;28;20402;-62
2022/05/10 03:57:05;;;;;;;16.95;15.20;;;;;;;;;;4995871;28;20154;-63
2022/05/10 03:59:34;;;;;;;17.90;13.63;;;;;;;;;;4995162;28;20058;-63
2022/05/10 04:02:01;;;;;;;16.92;15.10;;;;;;;;;;4995766;28;20050;-62
2022/05/10 04:04:31;;;;;;;16.80;14.77;;;;;;;;;;4995104;28;20050;-62
2022/05/10 04:07:00;;;;;;;17.98;14.50;;;;;;;;;;4995198;28;20054;-62
2022/05/10 04:09:29;;;;;;;23.95;16.02;;;;;;;;;;4995498;28;20042;-62
2022/05/10 04:11:57;;;;;;;16.42;14.52;;;;;;;;;;4995087;28;20133;-62
2022/05/10 04:14:26;;;;;;;18.08;15.98;;;;;;;;;;4995107;28;20145;-62
2022/05/10 04:16:54;;;;;;;17.20;14.60;;;;;;;;;;4995247;28;20105;-62
2022/05/10 04:19:23;;;;;;;17.90;15.00;;;;;;;;;;4995049;28;20046;-62
2022/05/10 04:21:52;;;;;;;18.13;14.93;;;;;;;;;;4993619;28;20058;-62
2022/05/10 04:24:20;;;;;;;16.98;15.18;;;;;;;;;;4994810;28;20057;-62
2022/05/10 04:26:50;;;;;;;16.92;15.07;;;;;;;;;;4994966;28;20053;-62
2022/05/10 04:29:18;;;;;;;17.55;15.73;;;;;;;;;;4995064;28;20132;-62
2022/05/10 04:31:46;;;;;;;17.17;15.18;;;;;;;;;;4995213;28;20051;-62
2022/05/10 04:34:15;;;;;;;18.08;13.48;;;;;;;;;;4994685;28;20108;-62
2022/05/10 04:36:44;;;;;;;15.88;14.05;;;;;;;;;;4995012;28;20050;-62
2022/05/10 04:39:12;;;;;;;14.20;11.95;;;;;;;;;;4994135;28;20374;-62
2022/05/10 04:41:45;;;;;;;15.80;11.25;;;;;;;;;;4994626;28;20057;-62
2022/05/10 04:44:14;;;;;;;17.67;14.02;;;;;;;;;;4994323;28;20054;-62
2022/05/10 04:46:44;;;;;;;17.17;13.55;;;;;;;;;;4994263;28;20082;-62
2022/05/10 04:49:14;;;;;;;15.15;13.40;;;;;;;;;;4994421;28;20081;-62
2022/05/10 04:51:42;;;;;;;14.77;13.27;;;;;;;;;;4994538;28;20054;-63
2022/05/10 04:54:10;;;;;;;16.00;14.10;;;;;;;;;;4994609;28;20057;-64
2022/05/10 04:56:38;;;;;;;18.55;13.98;;;;;;;;;;4993941;28;20062;-64
2022/05/10 04:59:11;;;;;;;16.98;14.88;;;;;;;;;;4994304;28;20054;-63
2022/05/10 05:01:40;;;;;;;15.60;13.85;;;;;;;;;;4994167;28;20524;-63
2022/05/10 05:04:10;;;;;;;15.93;14.18;;;;;;;;;;4993451;28;20100;-63
2022/05/10 05:06:40;;;;;;;16.10;14.60;;;;;;;;;;4992782;28;20047;-63
2022/05/10 05:09:08;;;;;;;17.65;12.95;;;;;;;;;;4993217;28;20050;-63
2022/05/10 05:11:36;;;;;;;16.60;14.70;;;;;;;;;;4992902;28;20141;-63
2022/05/10 05:14:04;;;;;;;22.95;16.73;;;;;;;;;;4992440;28;20463;-63
2022/05/10 05:16:33;;;;;;;18.83;15.13;;;;;;;;;;4994025;28;20042;-63
2022/05/10 05:19:01;;;;;;;17.35;15.18;;;;;;;;;;4994042;28;20058;-63
2022/05/10 05:21:29;;;;;;;16.45;14.43;;;;;;;;;;4993935;28;20486;-64
2022/05/10 05:23:58;;;;;;;15.77;14.18;;;;;;;;;;4993516;28;20061;-63
2022/05/10 05:26:27;;;;;;;20.08;14.88;;;;;;;;;;4993816;28;20092;-63
2022/05/10 05:28:56;;;;;;;18.13;13.15;;;;;;;;;;4994125;28;20046;-64
2022/05/10 05:31:24;;;;;;;17.50;14.35;;;;;;;;;;4995152;28;20041;-64
2022/05/10 05:33:54;;;;;;;14.70;13.30;;;;;;;;;;4985721;28;20058;-63
2022/05/10 05:36:23;;;;;;;20.88;13.50;;;;;;;;;;4993979;28;20073;-63
2022/05/10 05:38:51;;;;;;;17.00;15.07;;;;;;;;;;4993769;28;20050;-63
2022/05/10 05:41:19;;;;;;;19.60;14.95;;;;;;;;;;4993035;28;20106;-63
2022/05/10 05:43:48;;;;;;;17.95;14.82;;;;;;;;;;4994114;28;20054;-63
2022/05/10 05:46:16;;;;;;;21.27;15.77;;;;;;;;;;4993085;28;20089;-62
2022/05/10 05:48:43;;;;;;;19.05;16.10;;;;;;;;;;4993540;28;20046;-63
2022/05/10 05:51:12;;;;;;;17.17;15.50;;;;;;;;;;4993377;28;20060;-63
2022/05/10 05:53:40;;;;;;;18.65;15.80;;;;;;;;;;4993873;28;20585;-63
2022/05/10 05:56:10;;;;;;;21.50;16.13;;;;;;;;;;4993797;28;20050;-65
2022/05/10 05:58:39;;;;;;;20.38;16.58;;;;;;;;;;4993300;28;20066;-64
2022/05/10 06:01:15;;;;;;;19.42;16.92;;;;;;;;;;4994322;28;20108;-65
2022/05/10 06:03:44;;;;;;;21.70;17.20;;;;;;;;;;4994407;28;20113;-64
2022/05/10 06:06:13;;;;;;;22.05;18.52;;;;;;;;;;4993735;28;20046;-65
2022/05/10 06:08:45;;;;;;;21.65;17.40;;;;;;;;;;4993253;28;20129;-65
2022/05/10 06:11:17;;;;;;;46.08;19.95;;;;;;;;;;4993490;28;20445;-65
2022/05/10 06:13:45;;;;;;;21.50;17.75;;;;;;;;;;4993323;28;20050;-65
2022/05/10 06:16:13;;;;;;;20.65;16.50;;;;;;;;;;4993830;28;20050;-65
2022/05/10 06:18:42;;;;;;;17.30;15.75;;;;;;;;;;4993685;28;20104;-64
2022/05/10 06:21:12;;;;;;;19.17;17.23;;;;;;;;;;4993197;28;20193;-65
2022/05/10 06:23:41;;;;;;;18.70;16.85;;;;;;;;;;4993494;28;20493;-65
2022/05/10 06:26:09;;;;;;;24.95;16.95;;;;;;;;;;4991806;28;20085;-65
2022/05/10 06:28:38;;;;;;;19.50;17.52;;;;;;;;;;4993259;28;20185;-64
2022/05/10 06:31:08;;;;;;;19.80;16.83;;;;;;;;;;4992976;28;20039;-64
2022/05/10 06:33:37;;;;;;;20.40;17.02;;;;;;;;;;4993444;28;20469;-64
2022/05/10 06:36:06;;;;;;;17.98;16.08;;;;;;;;;;4992823;28;20054;-64
2022/05/10 06:38:36;;;;;;;16.75;15.25;;;;;;;;;;4991170;28;20050;-64
2022/05/10 06:41:06;;;;;;;18.67;16.70;;;;;;;;;;4991520;28;20050;-64
2022/05/10 06:43:36;;;;;;;18.63;17.02;;;;;;;;;;4990880;28;20089;-64
2022/05/10 06:46:09;;;;;;;20.90;17.52;;;;;;;;;;5009317;28;20113;-64
2022/05/10 06:48:39;;;;;;;17.90;15.75;;;;;;;;;;4994673;28;20395;-65
2022/05/10 06:51:08;;;;;;;16.52;15.02;;;;;;;;;;4995145;28;20082;-64
2022/05/10 06:53:37;;;;;;;17.05;14.25;;;;;;;;;;4995783;28;20050;-63
2022/05/10 06:56:06;;;;;;;18.63;14.40;;;;;;;;;;4994818;28;20047;-63
2022/05/10 06:58:35;;;;;;;17.63;14.57;;;;;;;;;;4994602;28;20133;-63
2022/05/10 07:01:22;;;;;;;29.17;16.08;;;;;;;;;;4995207;28;20061;-63
2022/05/10 07:03:51;;;;;;;18.38;16.40;;;;;;;;;;4994801;28;20046;-63
2022/05/10 07:06:40;;;;;;;24.70;16.58;;;;;;;;;;4993741;28;20748;-64
2022/05/10 07:09:08;;;;;;;18.17;15.98;;;;;;;;;;4994293;28;20046;-64
2022/05/10 07:12:00;;;;;;;22.55;16.15;;;;;;;;;;4993630;28;20046;-64
2022/05/10 07:14:28;;;;;;;20.85;16.50;;;;;;;;;;4994370;28;20046;-64
2022/05/10 07:16:57;;;;;;;17.92;16.23;;;;;;;;;;4993554;28;20058;-63
2022/05/10 07:19:44;;;;;;;16.30;14.57;;;;;;;;;;4993918;28;21180;-64
2022/05/10 07:22:33;;;;;;;16.15;12.98;;;;;;;;;;4993760;28;20054;-64
2022/05/10 07:25:03;;;;;;;16.70;15.18;;;;;;;;;;4993723;28;20076;-64
2022/05/10 07:27:33;;;;;;;15.60;13.70;;;;;;;;;;4994076;28;20482;-64
2022/05/10 07:30:01;;;;;;;16.05;13.90;;;;;;;;;;4992910;28;20062;-64
2022/05/10 07:32:29;;;;;;;20.30;14.23;;;;;;;;;;4994022;28;20409;-64
2022/05/10 07:34:56;;;;;;;19.20;12.90;;;;;;;;;;4994055;28;20046;-63
2022/05/10 07:37:24;;;;;;;20.83;12.95;;;;;;;;;;4994942;28;20046;-64
2022/05/10 07:39:52;;;;;;;17.33;14.35;;;;;;;;;;4992317;28;20417;-64
2022/05/10 07:42:21;;;;;;;15.70;13.82;;;;;;;;;;4995949;28;20141;-64
2022/05/10 07:44:51;;;;;;;17.65;13.88;;;;;;;;;;4995424;28;20105;-64
2022/05/10 07:47:18;;;;;;;16.13;13.95;;;;;;;;;;4995988;28;20046;-64
2022/05/10 07:49:46;;;;;;;15.80;14.18;;;;;;;;;;4994461;28;20038;-64
2022/05/10 07:52:15;;;;;;;15.52;13.88;;;;;;;;;;4994596;28;20096;-64
2022/05/10 07:54:42;;;;;;;14.30;12.25;;;;;;;;;;4995650;28;20066;-62
2022/05/10 07:57:10;;;;;;;18.08;13.73;;;;;;;;;;4995642;28;20046;-62
2022/05/10 07:59:38;;;;;;;19.50;14.65;;;;;;;;;;4995590;28;20046;-63
2022/05/10 08:02:07;;;;;;;19.35;13.10;;;;;;;;;;4994634;28;20069;-63
2022/05/10 08:04:35;;;;;;;22.90;15.38;;;;;;;;;;4994908;28;20042;-63
2022/05/10 08:07:03;;;;;;;17.52;14.07;;;;;;;;;;4994686;28;20485;-62
2022/05/10 08:09:33;;;;;;;17.95;13.13;;;;;;;;;;4994827;28;20449;-63
2022/05/10 08:12:02;;;;;;;15.70;12.98;;;;;;;;;;4994393;28;20578;-62
2022/05/10 08:14:30;;;;;;;18.48;14.13;;;;;;;;;;4993413;28;20049;-63
2022/05/10 08:16:59;;;;;;;15.38;13.75;;;;;;;;;;4994907;28;20047;-62
2022/05/10 08:19:28;;;;;;;14.05;12.68;;;;;;;;;;4992381;28;20058;-63
2022/05/10 08:21:58;;;;;;;14.98;13.07;;;;;;;;;;4994199;28;20078;-63
2022/05/10 08:24:27;;;;;;;15.65;13.98;;;;;;;;;;4992959;28;20093;-63
2022/05/10 08:26:57;;;;;;;15.65;12.77;;;;;;;;;;4994869;28;20065;-62
2022/05/10 08:29:25;;;;;;;14.82;12.93;;;;;;;;;;4994069;28;20078;-63
2022/05/10 08:31:53;;;;;;;20.88;12.10;;;;;;;;;;4995032;28;20064;-63
2022/05/10 08:34:22;;;;;;;15.43;12.10;;;;;;;;;;4994448;28;20046;-63
2022/05/10 08:36:53;;;;;;;14.32;12.23;;;;;;;;;;4994125;28;20108;-63
2022/05/10 08:39:22;;;;;;;17.95;12.65;;;;;;;;;;4993962;28;20050;-63
2022/05/10 08:41:56;;;;;;;14.52;11.65;;;;;;;;;;4993096;28;20136;-64
2022/05/10 08:44:27;;;;;;;12.98;11.68;;;;;;;;;;4994318;28;20129;-63
2022/05/10 08:46:59;;;;;;;11.73;10.55;;;;;;;;;;4992734;28;20068;-63
2022/05/10 08:49:43;;;;;;;16.75;11.38;;;;;;;;;;4993993;28;20137;-64
2022/05/10 08:52:11;;;;;;;13.88;10.95;;;;;;;;;;4992725;28;20584;-63
2022/05/10 08:54:40;;;;;;;14.27;11.55;;;;;;;;;;4993689;28;20188;-63
2022/05/10 08:57:35;;;;;;;23.50;12.43;;;;;;;;;;4991724;28;20046;-64
2022/05/10 09:00:19;;;;;;;14.00;12.55;;;;;;;;;;4992894;28;20098;-64
2022/05/10 09:02:56;;;;;;;;;;;;;;;;;;4991663;28;20058;-64
2022/05/10 09:06:01;;;;;;;14.43;11.40;;;;;;;;;;4993089;28;19968;-63
2022/05/10 09:09:25;;;;;;;17.05;12.07;;;;;;;;;;4991699;28;20040;-64
2022/05/10 09:12:10;;;;;;;15.45;11.45;;;;;;;;;;4992449;28;20046;-64
2022/05/10 09:14:48;;;;;;;19.23;11.63;;;;;;;;;;4992271;28;20058;-64
2022/05/10 09:17:18;;;;;;;13.40;12.05;;;;;;;;;;4990888;28;20050;-64
2022/05/10 09:19:47;;;;;;;13.15;11.68;;;;;;;;;;4990187;28;20074;-64
2022/05/10 09:22:56;;;;;;;13.70;11.68;;;;;;;;;;4992092;28;20502;-64
2022/05/10 09:25:39;;;;;;;16.65;11.13;;;;;;;;;;4991783;28;20042;-64
2022/05/10 09:28:29;;;;;;;12.88;11.52;;;;;;;;;;4991998;28;20585;-64
2022/05/10 09:34:47;;;;;;;16.98;11.10;;;;;;;;;;4974737;28;20051;-64
2022/05/10 09:37:29;;;;;;;18.42;10.75;;;;;;;;;;4973894;28;20051;-64
2022/05/10 09:39:57;;;;;;;15.60;12.80;;;;;;;;;;4974304;28;20051;-64
2022/05/10 09:42:26;;;;;;;12.38;11.10;;;;;;;;;;4973444;28;20052;-64
2022/05/10 09:44:58;;;;;;;16.63;11.25;;;;;;;;;;4974288;28;20069;-64
2022/05/10 09:47:26;;;;;;;12.65;11.30;;;;;;;;;;4974213;28;20054;-64
2022/05/10 09:50:10;;;;;;;13.00;11.45;;;;;;;;;;4973647;28;20082;-64
2022/05/10 09:52:40;;;;;;;12.32;10.75;;;;;;;;;;4993858;28;20056;-64
2022/05/10 09:55:24;;;;;;;12.10;8.50;;;;;;;;;;4993047;28;20058;-64
2022/05/10 09:57:52;;;;;;;11.73;8.35;;;;;;;;;;4992911;28;20113;-64
2022/05/10 10:00:41;;;;;;;14.60;8.77;;;;;;;;;;4992674;28;20421;-63
2022/05/10 10:03:09;;;;;;;9.55;8.23;;;;;;;;;;5008196;28;20081;-63
2022/05/10 10:05:38;;;;;;;9.77;7.63;;;;;;;;;;4991740;28;20050;-63
2022/05/10 10:08:07;;;;;;;11.10;6.85;;;;;;;;;;4993945;28;20053;-63
2022/05/10 10:10:37;;;;;;;10.13;7.40;;;;;;;;;;4996068;28;20125;-63
2022/05/10 10:13:23;;;;;;;10.40;6.68;;;;;;;;;;5013234;28;20053;-63
2022/05/10 10:15:54;;;;;;;9.20;6.35;;;;;;;;;;5012645;28;20050;-63
2022/05/10 10:18:44;;;;;;;10.60;5.78;;;;;;;;;;5012331;28;20066;-63
2022/05/10 10:21:19;;;;;;;12.73;5.45;;;;;;;;;;5011740;28;20088;-63
2022/05/10 10:24:02;;;;;;;11.00;5.38;;;;;;;;;;4995718;28;20046;-64
2022/05/10 10:26:36;;;;;;;7.55;5.47;;;;;;;;;;4998767;28;20050;-64
2022/05/10 10:29:13;;;;;;;7.55;3.88;;;;;;;;;;4996907;28;20413;-63
2022/05/10 10:32:15;;;;;;;7.15;4.63;;;;;;;;;;4997275;28;20058;-63
2022/05/10 10:34:54;;;;;;;11.40;5.05;;;;;;;;;;4994883;28;20145;-63
2022/05/10 10:37:28;;;;;;;11.25;4.97;;;;;;;;;;5012002;28;20524;-64
2022/05/10 10:40:01;;;;;;;;;;;;;;;;;;4996904;28;20054;-63
2022/05/10 10:42:48;;;;;;;12.18;4.85;;;;;;;;;;4996686;28;19921;-64
2022/05/10 10:45:30;;;;;;;7.72;4.53;;;;;;;;;;4995553;28;20113;-63
2022/05/10 10:48:08;;;;;;;14.70;4.63;;;;;;;;;;4995772;28;20054;-63
2022/05/10 10:50:38;;;;;;;9.52;4.80;;;;;;;;;;4996621;28;20055;-63
2022/05/10 10:53:08;;;;;;;9.77;4.88;;;;;;;;;;4996919;28;20058;-64
2022/05/10 10:55:56;;;;;;;9.27;4.25;;;;;;;;;;4996212;28;20412;-63
2022/05/10 10:59:04;;;;;;;9.65;5.00;;;;;;;;;;4995849;28;20054;-64
2022/05/10 11:02:02;;;;;;;14.57;5.13;;;;;;;;;;4995423;28;20136;-63
2022/05/10 11:05:03;;;;;;;9.98;5.18;;;;;;;;;;4992308;28;20042;-64
2022/05/10 11:07:56;;;;;;;11.32;4.80;;;;;;;;;;4976635;28;20046;-63
2022/05/10 11:11:01;;;;;;;17.08;5.65;;;;;;;;;;4977460;28;20078;-64
2022/05/10 11:13:31;;;;;;;9.05;4.60;;;;;;;;;;4976464;28;20507;-63
2022/05/10 11:16:14;;;;;;;11.82;5.20;;;;;;;;;;4976899;28;20130;-64
2022/05/10 11:19:12;;;;;;;18.20;5.63;;;;;;;;;;4976306;28;20087;-65
2022/05/10 11:22:14;;;;;;;10.35;5.30;;;;;;;;;;4976194;28;20141;-65
2022/05/10 11:24:59;;;;;;;11.68;4.88;;;;;;;;;;4976384;28;20552;-66
2022/05/10 11:27:40;;;;;;;10.77;4.68;;;;;;;;;;4991905;28;20055;-63
2022/05/10 11:30:15;;;;;;;13.98;4.72;;;;;;;;;;4991141;28;20186;-64
2022/05/10 11:33:20;;;;;;;15.23;5.20;;;;;;;;;;4985072;28;20046;-64
2022/05/10 11:36:02;;;;;;;11.02;4.90;;;;;;;;;;4991860;28;20112;-63
2022/05/10 11:38:33;;;;;;;10.55;4.40;;;;;;;;;;4994008;28;20377;-63
2022/05/10 11:41:12;;;;;;;15.95;5.05;;;;;;;;;;4993303;28;20402;-63
2022/05/10 11:43:44;;;;;;;9.48;4.68;;;;;;;;;;4995240;28;20038;-63
2022/05/10 11:46:17;;;;;;;11.35;4.28;;;;;;;;;;4995410;28;20046;-62
2022/05/10 11:49:12;;;;;;;10.18;4.43;;;;;;;;;;4995888;28;20081;-63
2022/05/10 11:52:05;;;;;;;7.53;4.18;;;;;;;;;;4994247;28;20100;-63
2022/05/10 11:54:55;;;;;;;9.68;4.30;;;;;;;;;;5008344;28;20386;-63
2022/05/10 11:57:23;;;;;;;13.30;4.35;;;;;;;;;;4993202;28;20045;-63
2022/05/10 11:59:52;;;;;;;8.00;4.72;;;;;;;;;;4992973;28;20129;-63
2022/05/10 12:02:43;;;;;;;11.82;4.10;;;;;;;;;;4994947;28;20042;-63
2022/05/10 12:05:10;;;;;;;9.52;5.85;;;;;;;;;;4995418;28;20046;-62
2022/05/10 12:08:03;;;;;;;16.23;5.30;;;;;;;;;;4995353;28;20445;-62
2022/05/10 12:10:44;;;;;;;5.50;3.80;;;;;;;;;;4996819;28;20058;-62
2022/05/10 12:22:08;;;;;;;;;;;;;;;;;;4994622;28;20081;-62
2022/05/10 12:24:45;;;;;;;7.97;3.85;;;;;;;;;;5009213;28;19929;-63
2022/05/10 12:27:16;;;;;;;11.00;4.70;;;;;;;;;;4994092;28;20038;-62
2022/05/10 12:29:52;;;;;;;15.02;3.72;;;;;;;;;;4992973;28;20050;-62
2022/05/10 12:32:37;;;;;;;11.93;4.35;;;;;;;;;;4992468;28;20046;-62
2022/05/10 12:35:10;;;;;;;10.27;4.13;;;;;;;;;;4993930;28;20462;-62
2022/05/10 12:38:02;;;;;;;13.52;4.30;;;;;;;;;;4993550;28;20108;-62
2022/05/10 12:40:34;;;;;;;5.90;3.65;;;;;;;;;;4994227;28;20121;-62
2022/05/10 12:43:14;;;;;;;11.57;4.50;;;;;;;;;;4992789;28;20530;-62
2022/05/10 12:46:01;;;;;;;11.10;3.95;;;;;;;;;;4993945;28;20078;-62
2022/05/10 12:49:03;;;;;;;9.90;3.95;;;;;;;;;;4992610;28;20493;-62
2022/05/10 12:52:12;;;;;;;7.50;3.78;;;;;;;;;;5008654;28;20105;-62
2022/05/10 12:54:43;;;;;;;10.55;4.68;;;;;;;;;;4992784;28;20046;-62
2022/05/10 12:57:29;;;;;;;12.13;3.60;;;;;;;;;;4993667;28;20093;-62
2022/05/10 13:00:11;;;;;;;11.30;4.20;;;;;;;;;;4992912;28;20528;-62
2022/05/10 13:02:45;;;;;;;13.50;4.50;;;;;;;;;;4993515;28;20046;-62
2022/05/10 13:05:21;;;;;;;9.95;4.20;;;;;;;;;;4993543;28;20043;-62
2022/05/10 13:07:55;;;;;;;13.63;5.97;;;;;;;;;;4991030;28;20068;-62
2022/05/10 13:10:23;;;;;;;12.02;4.85;;;;;;;;;;5005784;28;20129;-63
2022/05/10 13:13:05;;;;;;;11.43;4.47;;;;;;;;;;4991253;28;20038;-63
2022/05/10 13:15:41;;;;;;;12.15;4.38;;;;;;;;;;4991013;28;20096;-65
2022/05/10 13:18:17;;;;;;;9.35;4.00;;;;;;;;;;4991493;28;20050;-63
2022/05/10 13:20:50;;;;;;;10.25;4.80;;;;;;;;;;4991006;28;21269;-63
2022/05/10 13:23:19;;;;;;;14.05;5.00;;;;;;;;;;4991597;28;20050;-63
2022/05/10 13:25:48;;;;;;;13.77;5.32;;;;;;;;;;4991736;28;20062;-63
2022/05/10 13:28:24;;;;;;;11.30;4.53;;;;;;;;;;4991683;28;20078;-62
2022/05/10 13:30:57;;;;;;;9.35;4.72;;;;;;;;;;4991955;28;20125;-64
2022/05/10 13:33:31;;;;;;;15.43;5.78;;;;;;;;;;4991183;28;20050;-64
2022/05/10 13:36:03;;;;;;;7.20;4.57;;;;;;;;;;4989401;28;20042;-63
2022/05/10 13:38:33;;;;;;;13.73;5.70;;;;;;;;;;4991221;28;20605;-63
2022/05/10 13:41:03;;;;;;;12.13;6.70;;;;;;;;;;5006270;28;20057;-63
2022/05/10 13:43:43;;;;;;;10.95;5.57;;;;;;;;;;4991172;28;20066;-64
2022/05/10 13:46:16;;;;;;;15.15;5.70;;;;;;;;;;4989681;28;20061;-64
2022/05/10 13:49:02;;;;;;;9.27;4.50;;;;;;;;;;5007388;28;20137;-63
2022/05/10 13:51:33;;;;;;;10.60;5.20;;;;;;;;;;4993681;28;20046;-63
2022/05/10 13:54:11;;;;;;;11.02;4.32;;;;;;;;;;4993250;28;20498;-63
2022/05/10 13:56:41;;;;;;;15.13;4.97;;;;;;;;;;4995847;28;20046;-62
2022/05/10 13:59:11;;;;;;;14.35;4.80;;;;;;;;;;4997180;28;20081;-63
2022/05/10 14:01:46;;;;;;;8.20;5.53;;;;;;;;;;4996846;28;20092;-63
2022/05/10 14:04:18;;;;;;;13.50;4.10;;;;;;;;;;4994841;28;20050;-63
2022/05/10 14:06:53;;;;;;;19.23;5.85;;;;;;;;;;4996446;28;20145;-64
2022/05/10 14:09:25;;;;;;;13.48;4.60;;;;;;;;;;4995377;28;20473;-63
2022/05/10 14:11:55;;;;;;;14.57;5.65;;;;;;;;;;4995522;28;20042;-64
2022/05/10 14:14:28;;;;;;;15.15;4.25;;;;;;;;;;4997185;28;20481;-64
2022/05/10 14:17:00;;;;;;;18.60;5.68;;;;;;;;;;4996633;28;20054;-64
2022/05/10 14:19:34;;;;;;;22.45;5.00;;;;;;;;;;4994957;28;20048;-64
2022/05/10 14:22:05;;;;;;;20.67;4.15;;;;;;;;;;4994653;28;20070;-64
2022/05/10 14:24:35;;;;;;;15.82;4.25;;;;;;;;;;4995570;28;20068;-63
2022/05/10 14:27:13;;;;;;;14.55;4.95;;;;;;;;;;4995300;28;20077;-63
2022/05/10 14:29:45;;;;;;;7.43;4.50;;;;;;;;;;4995039;28;20390;-63
2022/05/10 14:32:30;;;;;;;14.95;4.72;;;;;;;;;;4991801;28;20050;-64
2022/05/10 14:35:10;;;;;;;9.27;5.70;;;;;;;;;;4992721;28;20046;-63
2022/05/10 14:37:49;;;;;;;10.60;4.88;;;;;;;;;;5008247;28;20055;-63
2022/05/10 14:40:40;;;;;;;11.30;4.60;;;;;;;;;;4994102;28;20058;-62
2022/05/10 14:43:13;;;;;;;9.93;4.32;;;;;;;;;;4993861;28;20129;-63
2022/05/10 14:45:49;;;;;;;15.75;4.22;;;;;;;;;;4995622;28;20611;-63
2022/05/10 14:48:25;;;;;;;14.40;5.38;;;;;;;;;;4995168;28;20050;-64
2022/05/10 14:50:57;;;;;;;14.90;5.15;;;;;;;;;;4994614;28;20057;-64
2022/05/10 14:53:29;;;;;;;13.98;5.47;;;;;;;;;;4995516;28;20077;-65
2022/05/10 14:56:05;;;;;;;20.00;5.72;;;;;;;;;;4995805;28;20062;-63
2022/05/10 14:58:37;;;;;;;10.77;5.47;;;;;;;;;;4996262;28;20121;-64
2022/05/10 15:01:09;;;;;;;9.43;6.00;;;;;;;;;;4996326;28;20482;-64
2022/05/10 15:03:38;;;;;;;;;;;;;;;;;;4995742;28;20049;-64
2022/05/10 15:06:10;;;;;;;12.30;5.57;;;;;;;;;;4995278;28;19983;-63
2022/05/10 15:08:40;;;;;;;14.20;4.95;;;;;;;;;;4995757;28;20077;-64
2022/05/10 15:11:08;;;;;;;12.10;4.35;;;;;;;;;;4995815;28;20093;-63
2022/05/10 15:13:36;;;;;;;14.38;4.78;;;;;;;;;;4987354;28;20050;-64
2022/05/10 15:16:06;;;;;;;15.63;4.93;;;;;;;;;;4996281;28;20081;-63
2022/05/10 15:21:33;;;;;;;22.42;5.55;;;;;;;;;;4995486;28;20561;-64
2022/05/10 15:24:05;;;;;;;12.27;5.00;;;;;;;;;;4996443;28;20054;-66
2022/05/10 15:26:47;;;;;;;12.73;4.85;;;;;;;;;;4993195;28;20042;-65
2022/05/10 15:29:23;;;;;;;13.93;5.45;;;;;;;;;;5010747;28;20058;-65
2022/05/10 15:31:54;;;;;;;16.08;5.53;;;;;;;;;;5010206;28;20054;-65